Time;durP1;ratioP1;P1;durP2;ratioP2;P2;SDS_P1;SDS_P2;PMS_P1;PMS_P2;Temp;Humidity;BMP_temperature;BMP_pressure;BME280_temperature;BME280_humidity;BME280_pressure;Samples;Min_cycle;Max_cycle;Signal;HPM_P1;HPM_P2
2021/05/06 00:33:54;;;;;;;7.30;5.17;;;;;;;12.14;56.09;100248.20;1789807;80;21386;-62
2021/05/06 00:36:59;;;;;;;9.83;5.42;;;;;;;12.09;56.21;100247.41;1790185;80;21355;-61
2021/05/06 00:40:08;;;;;;;8.45;5.47;;;;;;;12.06;56.33;100249.16;1782792;79;21669;-62
2021/05/06 01:03:09;;;;;;;10.50;4.97;;;;;;;12.00;56.38;100226.60;1777427;80;21544;-62
2021/05/06 01:06:17;;;;;;;8.10;4.92;;;;;;;12.00;56.30;100225.23;1777156;81;21228;-62
2021/05/06 01:09:21;;;;;;;12.13;4.83;;;;;;;11.98;56.43;100225.42;1777260;81;21280;-62
2021/05/06 01:12:26;;;;;;;6.25;4.25;;;;;;;11.97;56.70;100229.73;1777443;79;21264;-62
2021/05/06 01:15:32;;;;;;;7.45;4.33;;;;;;;11.93;56.71;100227.01;1777233;80;21247;-62
2021/05/06 01:18:38;;;;;;;8.03;4.53;;;;;;;11.89;56.72;100223.78;1777473;80;21178;-62
2021/05/06 01:21:44;;;;;;;9.63;4.58;;;;;;;11.86;56.82;100222.80;1777181;80;21189;-62
2021/05/06 01:24:55;;;;;;;7.08;4.10;;;;;;;11.82;57.01;100226.10;1777253;80;21264;-62
2021/05/06 01:28:08;;;;;;;8.75;4.33;;;;;;;11.77;57.11;100228.55;1777447;80;21247;-62
2021/05/06 01:31:22;;;;;;;5.97;4.12;;;;;;;11.71;57.22;100224.69;1777110;81;21303;-61
2021/05/06 01:34:23;;;;;;;6.12;4.08;;;;;;;11.67;57.48;100216.48;1777273;80;21182;-62
2021/05/06 01:37:53;;;;;;;5.37;3.60;;;;;;;11.64;57.47;100220.97;1786751;79;21197;-61
2021/05/06 01:41:08;;;;;;;7.25;4.10;;;;;;;11.60;57.54;100217.39;1801678;79;21212;-61
2021/05/06 01:44:11;;;;;;;;;;;;;;;11.55;57.59;100214.34;1806458;79;21852;-61
2021/05/06 01:47:28;;;;;;;8.68;3.50;;;;;;;11.50;57.84;100219.02;1803798;79;20213;-62
2021/05/06 01:51:22;;;;;;;5.28;3.55;;;;;;;11.47;57.85;100213.91;1803599;79;21268;-63
2021/05/06 02:00:52;;;;;;;6.45;3.85;;;;;;;11.40;57.64;100206.63;1803665;79;21343;-63
2021/05/06 02:03:55;;;;;;;7.75;3.90;;;;;;;11.37;57.68;100196.87;1803836;79;21335;-62
2021/05/06 02:07:01;;;;;;;6.17;3.22;;;;;;;11.34;57.70;100199.98;1803191;79;21185;-63
2021/05/06 02:10:08;;;;;;;7.75;3.55;;;;;;;11.34;57.70;100195.02;1803950;79;21271;-62
2021/05/06 02:13:15;;;;;;;5.83;4.00;;;;;;;11.34;57.64;100200.48;1803617;79;21157;-63
2021/05/06 02:16:33;;;;;;;10.28;3.67;;;;;;;11.31;57.73;100207.72;1803690;79;21224;-62
2021/05/06 02:19:38;;;;;;;6.80;3.80;;;;;;;11.28;57.93;100207.58;1803791;79;21240;-63
2021/05/06 02:22:46;;;;;;;6.92;3.75;;;;;;;11.28;57.87;100202.61;1803871;79;21319;-63
2021/05/06 02:25:52;;;;;;;6.08;3.58;;;;;;;11.25;57.85;100207.95;1804018;79;21915;-63
2021/05/06 02:28:57;;;;;;;6.05;3.45;;;;;;;11.25;57.98;100212.57;1803045;79;21474;-63
2021/05/06 02:32:04;;;;;;;8.88;4.08;;;;;;;11.23;58.13;100202.30;1804034;79;21370;-62
2021/05/06 02:35:13;;;;;;;7.55;3.77;;;;;;;11.22;58.18;100206.09;1803970;79;21280;-63
2021/05/06 02:38:19;;;;;;;6.33;3.62;;;;;;;11.20;58.27;100199.94;1803278;79;21344;-63
2021/05/06 02:41:25;;;;;;;5.85;3.67;;;;;;;11.20;58.23;100194.45;1793352;79;21355;-61
2021/05/06 02:44:36;;;;;;;9.45;4.50;;;;;;;11.18;58.18;100197.92;1759749;81;21869;-62
2021/05/06 02:47:42;;;;;;;6.92;4.17;;;;;;;11.15;58.28;100196.89;1760059;81;21351;-61
2021/05/06 02:50:54;;;;;;;7.62;4.17;;;;;;;11.10;58.52;100191.14;1760557;81;21774;-62
2021/05/06 02:53:57;;;;;;;5.03;3.80;;;;;;;11.04;58.74;100198.70;1760454;81;21355;-61
2021/05/06 02:57:53;;;;;;;5.17;3.90;;;;;;;10.99;58.85;100195.68;1760341;81;21830;-61
2021/05/06 03:03:45;;;;;;;8.60;4.30;;;;;;;10.95;59.13;100188.84;1684906;85;21350;-61
2021/05/06 03:06:53;;;;;;;7.53;4.35;;;;;;;10.94;59.20;100196.20;1760246;81;21396;-62
2021/05/06 03:10:06;;;;;;;6.10;4.28;;;;;;;10.93;59.32;100190.41;1760378;81;21359;-60
2021/05/06 03:23:06;;;;;;;5.53;3.77;;;;;;;11.13;59.26;100207.20;1760628;81;21351;-61
2021/05/06 03:26:12;;;;;;;7.58;4.47;;;;;;;11.20;59.24;100202.17;1760225;81;21761;-61
2021/05/06 03:29:59;;;;;;;4.87;3.92;;;;;;;11.24;59.09;100200.75;1760383;81;21375;-62
2021/05/06 03:32:45;;;;;;;6.00;3.90;;;;;;;11.25;59.05;100201.61;1760545;81;21205;-62
2021/05/06 03:42:39;;;;;;;10.10;5.58;;;;;;;11.27;59.11;100205.02;1761207;80;21873;-63
2021/05/06 03:46:11;;;;;;;9.20;4.60;;;;;;;11.31;59.21;100192.14;1760492;81;21355;-62
2021/05/06 04:25:36;;;;;;;8.05;4.47;;;;;;;12.22;57.10;100196.83;1760602;81;21362;-62
2021/05/06 04:29:53;;;;;;;7.85;4.50;;;;;;;12.51;56.27;100200.05;1760686;81;21324;-62
2021/05/06 04:35:39;;;;;;;10.58;4.33;;;;;;;12.68;56.02;100207.88;1760733;81;21829;-61
2021/05/06 04:38:46;;;;;;;8.83;4.28;;;;;;;12.80;55.38;100203.56;1760491;81;21348;-61
2021/05/06 04:42:07;;;;;;;7.22;4.25;;;;;;;12.82;55.13;100195.12;1760267;81;21351;-62
2021/05/06 04:55:26;;;;;;;10.82;4.83;;;;;;;13.14;55.32;100187.27;1758529;81;21252;-61
2021/05/06 05:05:06;;;;;;;;;;;;;;;13.20;55.07;100202.97;1723327;83;21233;-63
2021/05/06 05:08:14;;;;;;;9.13;3.87;;;;;;;13.27;55.28;100194.23;1720523;82;20265;-63
2021/05/06 05:11:45;;;;;;;6.45;4.17;;;;;;;13.34;55.00;100195.16;1736939;81;21763;-61
2021/05/06 05:18:57;;;;;;;;;;;;;;;13.49;55.37;100180.78;1723785;82;21329;-61
2021/05/06 05:27:38;;;;;;;7.47;3.47;;;;;;;13.79;54.40;100186.09;1720035;83;21201;-61
2021/05/06 05:30:43;;;;;;;7.17;3.62;;;;;;;14.02;54.75;100188.89;1739728;82;21245;-62
2021/05/06 05:33:58;;;;;;;6.12;3.27;;;;;;;14.30;53.67;100182.81;1739371;82;21217;-61
2021/05/06 05:36:59;;;;;;;6.12;3.40;;;;;;;14.50;53.51;100190.66;1740094;82;21365;-61
2021/05/06 05:40:16;;;;;;;9.43;3.80;;;;;;;14.72;52.96;100191.36;1735092;82;21413;-61
2021/05/06 05:56:15;;;;;;;7.40;3.45;;;;;;;14.74;52.67;100190.63;1788927;80;21363;-60
2021/05/06 05:59:20;;;;;;;8.05;3.50;;;;;;;14.64;53.01;100192.92;1789176;80;21359;-62
2021/05/06 06:02:25;;;;;;;5.28;3.35;;;;;;;14.54;53.30;100186.42;1787323;80;21426;-60
2021/05/06 06:05:34;;;;;;;9.13;4.10;;;;;;;14.55;53.92;100180.39;1788735;80;21439;-62
2021/05/06 06:08:39;;;;;;;12.18;4.35;;;;;;;14.60;54.10;100170.98;1774238;80;21186;-62
2021/05/06 06:11:45;;;;;;;12.20;3.75;;;;;;;14.63;53.76;100170.57;1787729;80;21407;-61
2021/05/06 06:14:59;;;;;;;11.45;4.08;;;;;;;14.60;53.61;100176.50;1788386;80;21396;-60
2021/05/06 06:18:01;;;;;;;10.98;4.20;;;;;;;14.56;53.59;100180.70;1697911;84;21189;-60
2021/05/06 06:21:28;;;;;;;9.48;3.42;;;;;;;14.55;53.70;100174.89;1701598;81;21677;-60
2021/05/06 06:24:29;;;;;;;5.92;3.02;;;;;;;14.59;53.93;100174.78;1735316;82;21186;-61
2021/05/06 06:27:34;;;;;;;5.85;3.17;;;;;;;14.68;54.09;100176.31;1736091;82;21767;-60
2021/05/06 06:30:40;;;;;;;5.65;3.85;;;;;;;14.75;53.69;100179.41;1736481;82;21210;-60
2021/05/06 13:34:32;;;;;;;4.53;2.60;;;;;;;17.43;48.00;100117.89;1818608;79;28148;-54
2021/05/06 13:37:48;;;;;;;3.80;2.20;;;;;;;17.25;48.71;100126.98;1773386;78;21271;-56
2021/05/06 13:40:54;;;;;;;3.42;2.27;;;;;;;16.97;49.84;100127.09;1741904;82;21233;-53
2021/05/06 13:44:02;;;;;;;4.97;2.42;;;;;;;16.69;50.84;100141.84;1775857;80;21239;-54
2021/05/06 13:47:14;;;;;;;4.35;2.50;;;;;;;16.45;51.89;100148.98;1778862;80;21219;-56
2021/05/06 13:50:25;;;;;;;6.03;3.40;;;;;;;16.23;54.05;100143.41;1767895;81;21231;-57
2021/05/06 13:53:38;;;;;;;5.42;2.87;;;;;;;16.03;55.13;100152.30;1783298;80;21782;-54
2021/05/06 13:56:45;;;;;;;5.70;4.00;;;;;;;15.88;56.02;100153.92;1773854;80;21172;-52
2021/05/06 13:59:50;;;;;;;6.28;3.02;;;;;;;15.76;56.88;100154.25;1771798;81;21463;-54
2021/05/06 14:02:58;;;;;;;6.25;3.72;;;;;;;15.66;57.71;100144.20;1773287;80;21211;-53
2021/05/06 14:06:04;;;;;;;7.00;3.67;;;;;;;15.58;58.44;100147.70;1774937;81;21193;-54
2021/05/06 14:09:20;;;;;;;6.22;3.50;;;;;;;15.51;59.09;100148.22;1773038;81;21745;-54
2021/05/06 14:12:18;;;;;;;5.78;3.83;;;;;;;15.46;59.55;100147.48;1771391;81;21283;-54
2021/05/06 14:15:23;;;;;;;7.55;3.67;;;;;;;15.43;59.97;100150.67;1755221;81;21169;-55
2021/05/06 14:18:29;;;;;;;8.40;5.00;;;;;;;15.41;60.39;100145.92;1755538;81;21370;-56
2021/05/06 14:21:34;;;;;;;9.23;4.80;;;;;;;15.42;60.71;100142.09;1759647;81;21193;-55
2021/05/06 14:24:38;;;;;;;9.20;5.12;;;;;;;15.40;60.79;100139.20;1768991;81;21295;-55
2021/05/06 14:27:44;;;;;;;9.85;5.62;;;;;;;15.37;61.10;100142.36;1768197;80;21338;-55
2021/05/06 14:30:50;;;;;;;9.50;5.40;;;;;;;15.34;61.18;100144.17;1763130;80;21882;-56
2021/05/06 14:33:56;;;;;;;10.18;4.47;;;;;;;15.31;61.58;100146.83;1764576;80;21227;-55
2021/05/06 14:37:01;;;;;;;9.45;4.92;;;;;;;15.27;61.74;100151.61;1747910;81;21255;-54
2021/05/06 14:40:10;;;;;;;9.28;5.03;;;;;;;15.20;62.16;100148.84;1742411;82;21490;-54
2021/05/06 14:43:17;;;;;;;8.90;4.65;;;;;;;15.12;62.71;100150.42;1729576;82;21244;-56
2021/05/06 14:46:22;;;;;;;12.15;6.60;;;;;;;15.05;63.33;100150.94;1729937;83;21386;-57
2021/05/06 14:49:28;;;;;;;9.10;5.70;;;;;;;14.93;63.94;100141.08;1729878;83;21361;-55
2021/05/06 14:52:33;;;;;;;12.55;8.43;;;;;;;14.85;64.42;100129.39;1739957;82;21291;-57
2021/05/06 14:55:40;;;;;;;10.40;6.60;;;;;;;14.82;65.13;100136.19;1742441;82;21313;-56
2021/05/06 14:58:46;;;;;;;8.30;5.17;;;;;;;14.76;65.91;100142.51;1743626;82;21251;-56
2021/05/06 15:01:53;;;;;;;10.28;4.75;;;;;;;14.68;67.02;100150.14;1731025;82;21355;-57
2021/05/06 15:04:59;;;;;;;10.23;5.45;;;;;;;14.58;67.95;100136.77;1730716;83;21359;-58
2021/05/06 15:08:06;;;;;;;8.25;5.40;;;;;;;14.52;68.51;100138.11;1731057;82;21379;-58
2021/05/06 15:11:11;;;;;;;17.92;10.40;;;;;;;14.47;68.91;100141.49;1714650;83;21190;-58
2021/05/06 15:14:16;;;;;;;10.05;5.08;;;;;;;14.43;69.09;100143.50;1714557;82;21214;-59
2021/05/06 15:17:21;;;;;;;8.23;4.65;;;;;;;14.38;69.52;100155.66;1741378;82;21216;-58
2021/05/06 15:20:26;;;;;;;8.40;5.10;;;;;;;14.30;69.88;100156.66;1743572;81;21200;-58
2021/05/06 15:23:32;;;;;;;10.58;5.42;;;;;;;14.24;70.29;100164.36;1743687;81;21216;-58
2021/05/06 15:26:37;;;;;;;9.08;5.85;;;;;;;14.21;70.86;100166.64;1743507;81;21602;-57
2021/05/06 15:29:44;;;;;;;8.48;6.58;;;;;;;14.18;71.30;100165.67;1743611;82;21771;-56
2021/05/06 15:32:49;;;;;;;11.63;6.25;;;;;;;14.19;71.67;100174.28;1743273;81;21205;-57
2021/05/06 15:35:56;;;;;;;10.05;6.87;;;;;;;14.20;72.03;100175.96;1761852;79;21184;-57
2021/05/06 15:39:01;;;;;;;9.10;6.20;;;;;;;14.18;72.36;100169.80;1782240;79;21909;-57
2021/05/06 15:42:06;;;;;;;9.03;5.83;;;;;;;14.12;72.68;100170.62;1783379;79;21330;-57
2021/05/06 15:45:12;;;;;;;7.47;5.80;;;;;;;14.08;73.00;100170.73;1783178;80;21401;-58
2021/05/06 15:48:21;;;;;;;10.55;6.40;;;;;;;14.04;73.41;100170.27;1783333;79;21384;-58
2021/05/06 15:51:28;;;;;;;9.88;6.47;;;;;;;14.02;73.80;100169.62;1783831;80;21347;-59
2021/05/06 15:54:37;;;;;;;10.88;7.53;;;;;;;13.99;73.99;100162.29;1783051;80;21168;-58
2021/05/06 15:57:44;;;;;;;14.18;7.80;;;;;;;13.96;74.17;100158.05;1783688;79;21239;-57
2021/05/06 16:00:51;;;;;;;14.33;8.55;;;;;;;13.94;74.41;100159.32;1783751;80;21803;-58
2021/05/06 16:04:04;;;;;;;11.35;7.10;;;;;;;13.91;74.75;100151.44;1783827;79;21917;-58
2021/05/06 16:07:07;;;;;;;12.33;7.78;;;;;;;13.91;75.18;100158.32;1783834;79;21330;-57
2021/05/06 16:10:15;;;;;;;10.05;7.45;;;;;;;13.89;75.39;100155.77;1783548;80;21382;-58
2021/05/06 16:13:19;;;;;;;10.53;6.50;;;;;;;13.85;75.67;100155.87;1782979;79;21322;-57
2021/05/06 16:16:25;;;;;;;10.30;7.47;;;;;;;13.82;75.93;100157.66;1783282;80;21235;-57
2021/05/06 16:19:31;;;;;;;13.43;7.33;;;;;;;13.79;76.14;100157.20;1783729;80;21307;-58
2021/05/06 16:22:37;;;;;;;12.68;7.87;;;;;;;13.74;76.45;100154.20;1783772;79;21333;-59
2021/05/06 16:25:48;;;;;;;14.87;9.18;;;;;;;13.72;76.73;100161.80;1783797;80;21172;-59
2021/05/06 16:28:55;;;;;;;13.83;9.23;;;;;;;13.68;77.02;100166.02;1783759;79;21207;-58
2021/05/06 16:32:00;;;;;;;16.30;10.15;;;;;;;13.62;77.38;100153.07;1783723;79;21326;-59
2021/05/06 16:35:11;;;;;;;13.05;8.70;;;;;;;13.60;77.67;100154.65;1783882;80;21319;-57
2021/05/06 16:38:19;;;;;;;13.50;8.50;;;;;;;13.60;77.93;100157.91;1783745;79;21314;-58
2021/05/06 16:41:43;;;;;;;13.55;9.08;;;;;;;13.58;78.22;100155.88;1783817;80;21290;-58
2021/05/06 16:44:32;;;;;;;15.40;9.60;;;;;;;13.56;78.46;100155.26;1783758;80;21384;-58
2021/05/06 16:47:38;;;;;;;14.10;9.58;;;;;;;13.57;78.59;100158.32;1783700;79;21342;-58
2021/05/06 16:50:44;;;;;;;14.03;9.35;;;;;;;13.57;78.75;100160.55;1783841;80;21371;-58
2021/05/06 16:53:52;;;;;;;14.58;9.25;;;;;;;13.56;78.86;100169.01;1783619;79;21839;-57
2021/05/06 16:56:58;;;;;;;11.68;8.63;;;;;;;13.52;78.91;100171.30;1782907;79;21696;-58
2021/05/06 17:00:03;;;;;;;12.98;8.43;;;;;;;13.48;78.93;100177.72;1783436;80;21381;-57
2021/05/06 17:03:09;;;;;;;12.33;8.83;;;;;;;13.44;78.93;100177.81;1783519;79;21670;-57
2021/05/06 17:06:15;;;;;;;13.25;8.85;;;;;;;13.42;79.04;100178.52;1783426;80;21330;-58
2021/05/06 17:09:20;;;;;;;13.45;9.18;;;;;;;13.41;79.12;100180.92;1783685;80;21342;-57
2021/05/06 17:12:27;;;;;;;10.50;8.73;;;;;;;13.40;79.22;100190.23;1782758;79;21318;-58
2021/05/06 17:15:34;;;;;;;13.40;9.80;;;;;;;13.38;79.36;100192.33;1752626;82;21280;-57
2021/05/06 17:18:40;;;;;;;16.17;10.58;;;;;;;13.38;79.51;100191.50;1752243;82;21743;-61
2021/05/06 17:21:47;;;;;;;14.38;9.25;;;;;;;13.38;79.73;100197.83;1752816;82;21412;-57
2021/05/06 17:24:53;;;;;;;13.45;9.13;;;;;;;13.39;79.82;100209.17;1771076;80;21424;-56
2021/05/06 17:27:57;;;;;;;13.32;10.00;;;;;;;13.39;79.90;100204.19;1783655;79;21243;-57
2021/05/06 17:31:03;;;;;;;13.32;9.80;;;;;;;13.37;79.99;100205.76;1783809;80;21306;-57
2021/05/06 17:34:08;;;;;;;12.28;9.70;;;;;;;13.33;80.12;100209.94;1768333;80;21359;-56
2021/05/06 17:37:14;;;;;;;11.93;9.13;;;;;;;13.31;80.24;100213.94;1755325;79;21223;-57
2021/05/06 17:40:20;;;;;;;13.22;8.30;;;;;;;13.27;80.30;100220.35;1739010;81;21895;-58
2021/05/06 17:43:29;;;;;;;10.38;8.15;;;;;;;13.22;80.23;100230.25;1774809;80;21416;-58
2021/05/06 17:46:34;;;;;;;13.68;8.78;;;;;;;13.17;80.15;100228.10;1769147;81;21367;-59
2021/05/06 17:49:42;;;;;;;12.80;9.18;;;;;;;13.15;80.17;100232.07;1766378;81;21340;-58
2021/05/06 17:52:48;;;;;;;11.15;8.83;;;;;;;13.09;80.05;100228.73;1748136;81;21220;-59
2021/05/06 17:55:53;;;;;;;16.05;9.53;;;;;;;13.07;80.24;100233.06;1766626;81;21201;-58
2021/05/06 17:59:00;;;;;;;12.43;9.78;;;;;;;13.06;80.64;100236.86;1766428;81;21288;-58
2021/05/06 18:02:07;;;;;;;11.03;9.45;;;;;;;13.09;81.06;100237.84;1766500;81;21366;-59
2021/05/06 18:05:16;;;;;;;10.23;8.43;;;;;;;13.12;81.21;100240.71;1766420;81;21189;-58
2021/05/06 18:08:25;;;;;;;9.73;8.65;;;;;;;13.12;81.08;100242.95;1766428;80;21571;-58
2021/05/06 18:14:42;;;;;;;13.88;8.23;;;;;;;13.13;81.13;100239.66;1756903;80;21357;-58
2021/05/06 18:17:48;;;;;;;9.40;7.42;;;;;;;13.13;81.26;100233.64;1746988;82;21262;-58
2021/05/06 18:20:53;;;;;;;8.13;7.33;;;;;;;13.15;81.42;100244.44;1747079;82;21216;-58
2021/05/06 18:24:01;;;;;;;8.28;7.45;;;;;;;13.15;81.55;100237.57;1747021;82;21222;-58
2021/05/06 18:27:08;;;;;;;9.58;7.17;;;;;;;13.14;81.60;100231.76;1747051;82;21215;-57
2021/05/06 18:30:16;;;;;;;10.43;7.70;;;;;;;13.13;81.76;100225.91;1747020;82;21279;-56
2021/05/06 18:33:22;;;;;;;9.38;7.67;;;;;;;13.13;81.85;100229.52;1747126;82;21602;-57
2021/05/06 18:36:29;;;;;;;8.48;7.47;;;;;;;13.12;81.94;100235.22;1746971;82;21212;-58
2021/05/06 18:39:35;;;;;;;18.25;9.73;;;;;;;13.09;81.95;100241.11;1747805;82;21247;-58
2021/05/06 18:42:43;;;;;;;10.53;9.00;;;;;;;13.03;81.80;100242.72;1752837;82;21242;-58
2021/05/06 18:45:50;;;;;;;8.50;6.95;;;;;;;12.98;81.86;100238.33;1752879;82;21294;-56
2021/05/06 18:48:57;;;;;;;11.75;7.80;;;;;;;12.95;81.88;100235.97;1752698;82;21231;-57
2021/05/06 18:52:03;;;;;;;10.20;7.15;;;;;;;12.90;81.59;100237.08;1752786;82;21370;-57
2021/05/06 18:55:08;;;;;;;12.33;8.98;;;;;;;12.87;81.49;100236.60;1752628;82;21199;-57
2021/05/06 18:58:16;;;;;;;10.40;8.53;;;;;;;12.82;81.35;100239.94;1752457;82;21253;-56
2021/05/06 19:01:21;;;;;;;10.25;9.25;;;;;;;12.77;81.12;100245.16;1752830;82;21207;-57
2021/05/06 19:04:26;;;;;;;12.00;10.63;;;;;;;12.69;81.07;100245.27;1752961;82;21558;-57
2021/05/06 19:07:36;;;;;;;11.65;9.75;;;;;;;12.61;81.19;100237.14;1752778;82;21755;-58
2021/05/06 19:10:40;;;;;;;11.03;9.23;;;;;;;12.54;81.38;100238.94;1752969;81;21617;-58
2021/05/06 19:13:51;;;;;;;14.65;11.43;;;;;;;12.44;81.42;100235.66;1753037;82;21230;-58
2021/05/06 19:16:53;;;;;;;13.93;12.30;;;;;;;12.33;81.34;100244.37;1752387;82;21199;-57
2021/05/06 19:19:58;;;;;;;14.68;10.15;;;;;;;12.23;81.77;100252.55;1752055;79;21298;-57
2021/05/06 19:23:05;;;;;;;11.25;10.03;;;;;;;12.15;82.04;100243.90;1737142;82;22272;-58
2021/05/06 19:26:13;;;;;;;11.70;9.60;;;;;;;12.05;82.12;100241.44;1715272;83;21204;-58
2021/05/06 19:29:18;;;;;;;11.50;9.95;;;;;;;11.94;82.05;100250.14;1722304;82;21451;-58
2021/05/06 19:32:23;;;;;;;15.32;11.48;;;;;;;11.84;82.27;100249.55;1738041;82;21271;-59
2021/05/06 19:35:30;;;;;;;20.70;13.40;;;;;;;11.77;82.62;100254.09;1715026;83;21247;-57
2021/05/06 19:38:41;;;;;;;20.27;12.93;;;;;;;11.73;83.10;100255.48;1737893;82;21209;-57
2021/05/06 19:41:46;;;;;;;22.13;13.35;;;;;;;11.70;83.37;100266.00;1715721;83;21204;-57
2021/05/06 19:44:54;;;;;;;26.35;16.50;;;;;;;11.65;83.54;100267.08;1731019;83;21221;-57
2021/05/06 19:48:00;;;;;;;26.42;17.87;;;;;;;11.62;83.73;100271.53;1687818;83;21240;-57
2021/05/06 19:51:07;;;;;;;24.02;16.17;;;;;;;11.59;83.85;100274.64;1730975;83;21221;-57
2021/05/06 19:54:13;;;;;;;25.68;16.90;;;;;;;11.56;83.95;100282.70;1687875;85;21267;-58
2021/05/06 19:57:19;;;;;;;26.52;16.50;;;;;;;11.53;84.00;100287.18;1731159;81;21231;-57
2021/05/06 20:00:24;;;;;;;19.92;13.13;;;;;;;11.49;84.05;100291.85;1731016;83;21717;-57
2021/05/06 20:03:29;;;;;;;18.15;12.28;;;;;;;11.44;84.08;100300.63;1731012;81;21833;-57
2021/05/06 20:06:35;;;;;;;17.45;11.22;;;;;;;11.39;84.11;100304.94;1687966;85;21225;-57
2021/05/06 20:09:42;;;;;;;13.65;10.23;;;;;;;11.33;84.21;100307.05;1730905;83;21591;-56
2021/05/06 20:12:50;;;;;;;13.68;9.85;;;;;;;11.28;84.34;100304.86;1732989;81;21390;-56
2021/05/06 20:15:56;;;;;;;11.30;9.90;;;;;;;11.23;84.43;100303.69;1732759;83;21380;-58
2021/05/06 20:19:02;;;;;;;13.43;10.53;;;;;;;11.15;84.21;100304.60;1756525;80;21208;-57
2021/05/06 20:22:10;;;;;;;12.00;9.23;;;;;;;11.05;84.04;100305.88;1763134;81;21383;-57
2021/05/06 20:25:18;;;;;;;12.53;9.98;;;;;;;10.93;84.04;100305.43;1737065;82;21351;-58
2021/05/06 20:28:23;;;;;;;11.73;9.48;;;;;;;10.85;84.10;100307.34;1745528;82;21270;-57
2021/05/06 20:31:29;;;;;;;11.53;9.53;;;;;;;10.76;84.22;100304.33;1745197;82;21188;-58
2021/05/06 20:34:35;;;;;;;11.48;10.05;;;;;;;10.70;84.40;100292.22;1725861;81;21184;-58
2021/05/06 20:37:40;;;;;;;11.80;9.60;;;;;;;10.64;84.57;100282.50;1745152;82;21212;-57
2021/05/06 20:40:47;;;;;;;11.15;10.00;;;;;;;10.58;84.63;100280.80;1744262;80;21278;-58
2021/05/06 20:44:01;;;;;;;12.13;9.50;;;;;;;10.54;84.69;100297.23;1746845;82;21370;-57
2021/05/06 20:47:08;;;;;;;11.35;9.58;;;;;;;10.49;84.74;100306.52;1749387;82;21195;-57
2021/05/06 20:50:14;;;;;;;11.95;9.85;;;;;;;10.43;84.66;100311.30;1749875;82;21248;-58
2021/05/06 20:53:19;;;;;;;13.58;11.50;;;;;;;10.38;84.70;100315.11;1748637;81;21385;-57
2021/05/06 20:56:24;;;;;;;19.98;13.40;;;;;;;10.31;84.61;100311.36;1750450;82;21697;-56
2021/05/06 20:59:32;;;;;;;20.20;15.48;;;;;;;10.27;84.61;100319.59;1752526;82;21775;-56
2021/05/06 21:02:30;;;;;;;18.90;15.65;;;;;;;10.23;84.84;100323.69;1752832;82;21242;-57
2021/05/06 21:05:37;;;;;;;19.02;16.23;;;;;;;10.22;85.08;100341.14;1752789;82;21207;-57
2021/05/06 21:08:43;;;;;;;17.30;14.30;;;;;;;10.20;85.31;100344.56;1752710;80;21389;-57
2021/05/06 21:11:55;;;;;;;19.20;15.05;;;;;;;10.14;85.06;100341.16;1752786;80;21215;-57
2021/05/06 21:15:01;;;;;;;25.35;19.00;;;;;;;10.08;84.85;100351.44;1752569;82;21203;-57
2021/05/06 21:18:08;;;;;;;21.55;16.93;;;;;;;10.03;84.81;100340.12;1752808;82;21238;-57
2021/05/06 21:21:15;;;;;;;21.27;17.20;;;;;;;10.00;84.79;100337.73;1752851;82;21216;-58
2021/05/06 21:24:22;;;;;;;22.73;17.60;;;;;;;9.91;84.43;100327.81;1752703;82;21239;-58
2021/05/06 21:27:28;;;;;;;19.98;16.02;;;;;;;9.82;84.24;100329.36;1752775;82;21273;-58
2021/05/06 21:30:33;;;;;;;18.23;15.30;;;;;;;9.75;84.31;100331.09;1752431;82;21219;-57
2021/05/06 21:33:40;;;;;;;18.52;14.78;;;;;;;9.68;84.43;100333.66;1752307;82;21278;-57
2021/05/06 21:36:45;;;;;;;18.70;14.10;;;;;;;9.65;84.46;100343.57;1752732;82;21200;-57
2021/05/06 21:39:52;;;;;;;17.73;14.65;;;;;;;9.59;84.27;100340.16;1752481;82;21258;-57
2021/05/06 21:42:58;;;;;;;48.68;31.30;;;;;;;9.53;84.32;100339.45;1745444;81;21263;-57
2021/05/06 21:46:05;;;;;;;53.75;33.58;;;;;;;9.49;84.36;100345.42;1746641;82;21231;-57
2021/05/06 21:49:12;;;;;;;37.48;25.52;;;;;;;9.47;84.75;100344.23;1746689;82;21227;-57
2021/05/06 21:52:19;;;;;;;32.08;22.45;;;;;;;9.46;84.83;100339.80;1746678;82;21219;-57
2021/05/06 21:55:24;;;;;;;33.85;23.75;;;;;;;9.41;84.72;100355.84;1746957;82;21215;-56
2021/05/06 21:58:30;;;;;;;31.95;21.77;;;;;;;9.35;84.54;100357.89;1746328;82;21247;-56
2021/05/06 22:01:36;;;;;;;28.15;20.95;;;;;;;9.32;84.57;100369.16;1746897;82;21294;-56
2021/05/06 22:04:43;;;;;;;25.55;19.57;;;;;;;9.24;84.27;100370.52;1746258;82;21740;-57
2021/05/06 22:07:48;;;;;;;26.27;18.35;;;;;;;9.15;84.04;100361.10;1746460;82;21235;-57
2021/05/06 22:10:53;;;;;;;27.15;17.80;;;;;;;9.07;84.04;100367.38;1746803;81;21204;-57
2021/05/06 22:14:01;;;;;;;28.85;20.23;;;;;;;9.01;84.03;100359.85;1746646;82;21779;-57
2021/05/06 22:17:07;;;;;;;32.00;21.50;;;;;;;8.94;83.92;100354.73;1746808;80;21231;-56
2021/05/06 22:20:14;;;;;;;37.35;23.77;;;;;;;8.85;83.88;100349.75;1746906;82;21224;-56
2021/05/06 22:23:20;;;;;;;35.05;24.85;;;;;;;8.78;83.87;100353.31;1744974;82;21295;-57
2021/05/06 22:26:26;;;;;;;32.05;21.17;;;;;;;8.73;84.05;100348.35;1746903;82;21286;-56
2021/05/06 22:29:32;;;;;;;31.65;21.55;;;;;;;8.72;84.35;100356.70;1746025;82;21228;-57
2021/05/06 22:32:39;;;;;;;28.38;17.73;;;;;;;8.69;84.36;100360.59;1746924;82;21303;-57
2021/05/06 22:35:46;;;;;;;30.55;16.05;;;;;;;8.67;84.49;100370.81;1746761;82;22077;-57
2021/05/06 22:38:53;;;;;;;42.58;15.90;;;;;;;8.68;84.74;100367.09;1746571;82;21557;-57
2021/05/06 22:41:58;;;;;;;23.10;13.38;;;;;;;8.69;84.85;100374.74;1746667;81;21239;-57
2021/05/06 22:45:04;;;;;;;18.95;13.88;;;;;;;8.67;84.92;100380.89;1750882;82;21240;-57
2021/05/06 22:48:10;;;;;;;18.23;13.18;;;;;;;8.61;84.83;100374.73;1752772;80;21246;-57
2021/05/06 22:51:16;;;;;;;15.35;12.07;;;;;;;8.54;84.73;100375.03;1752760;82;21694;-57
2021/05/06 22:54:22;;;;;;;13.05;11.45;;;;;;;8.50;84.78;100368.20;1752769;82;21551;-57
2021/05/06 22:57:27;;;;;;;13.75;10.45;;;;;;;8.45;84.70;100366.47;1752702;82;21230;-57
2021/05/06 23:00:34;;;;;;;13.35;10.70;;;;;;;8.39;84.59;100360.27;1752602;82;21263;-57
2021/05/06 23:03:40;;;;;;;13.83;10.23;;;;;;;8.37;84.65;100354.15;1752599;82;21220;-57
2021/05/06 23:06:46;;;;;;;12.45;10.05;;;;;;;8.34;84.60;100361.30;1752683;82;21227;-57
2021/05/06 23:09:53;;;;;;;10.70;9.10;;;;;;;8.31;84.67;100357.53;1752788;82;21223;-57
2021/05/06 23:12:58;;;;;;;11.83;9.60;;;;;;;8.28;84.67;100361.42;1752728;82;21239;-57
2021/05/06 23:16:05;;;;;;;27.65;11.30;;;;;;;8.29;84.74;100373.19;1752878;82;21243;-57
2021/05/06 23:19:12;;;;;;;41.88;11.22;;;;;;;8.30;84.85;100374.39;1752513;82;21215;-57
2021/05/06 23:22:19;;;;;;;23.35;10.95;;;;;;;8.29;84.77;100377.28;1752650;82;21246;-57
2021/05/06 23:25:24;;;;;;;41.98;10.38;;;;;;;8.26;84.75;100376.25;1752815;82;21267;-57
2021/05/06 23:28:30;;;;;;;15.48;10.23;;;;;;;8.22;84.73;100379.77;1752669;82;21247;-58
2021/05/06 23:31:36;;;;;;;16.23;9.70;;;;;;;8.19;84.77;100383.31;1752520;82;21246;-56
2021/05/06 23:34:43;;;;;;;17.15;9.80;;;;;;;8.18;84.89;100381.61;1752886;81;21222;-57
2021/05/06 23:37:49;;;;;;;10.70;9.18;;;;;;;8.18;84.94;100389.80;1752858;82;21250;-55
2021/05/06 23:40:56;;;;;;;11.48;9.00;;;;;;;8.17;84.92;100394.88;1752997;81;21389;-57
2021/05/06 23:44:02;;;;;;;12.35;9.35;;;;;;;8.13;84.80;100392.14;1750569;80;21203;-56
2021/05/06 23:47:07;;;;;;;14.33;10.60;;;;;;;8.06;84.41;100391.05;1752858;82;21326;-56
2021/05/06 23:50:15;;;;;;;16.62;11.08;;;;;;;7.99;84.19;100394.09;1752696;82;21212;-56
2021/05/06 23:53:20;;;;;;;14.63;11.38;;;;;;;7.95;84.20;100393.55;1752508;82;21418;-57
2021/05/06 23:56:26;;;;;;;15.18;11.40;;;;;;;7.90;84.22;100400.47;1752867;82;21231;-57
2021/05/06 23:59:33;;;;;;;16.20;11.20;;;;;;;7.83;84.16;100400.27;1752755;82;21736;-57
